Terminal Aerodrome Forecast
Issued by NWS North Platte, NE

Home | Current Version | Previous Version | Text Only | Print | Product List | Glossary On
Versions: 1 2 3 4 5 6 7 8 9 10 11 12
000
FTUS43 KLBF 271700
TAFVTN
TAF
KVTN 271722Z 2718/2818 32015G26KT P6SM SCT100
      TEMPO 2718/2720 -SHRA BKN070
     FM280000 30010KT P6SM SCT100
     FM281400 31017G25KT P6SM SKC=

USA.gov is the U.S. government's official web portal to all federal, state and local government web resources and services.